METAR Data
IDs: Format: Raw Decoded Include TAF

Data at: 2049 UTC 22 Sep 2020

KRRL 222035Z AUTO 24003KT 10SM CLR 26/13 A3006 RMK AO2 T02600125 TSNO
KRRL 222015Z AUTO 00000KT 10SM CLR 26/13 A3006 RMK AO2 T02600130 TSNO
KRRL 221955Z AUTO 26006KT 10SM CLR 26/13 A3006 RMK AO2 T02640133 TSNO
KRRL 221935Z AUTO 21003KT 10SM CLR 26/13 A3007 RMK AO2 T02600132 TSNO
KRRL 221915Z AUTO 20003KT 10SM CLR 26/13 A3007 RMK AO2 T02590133 TSNO
KRRL 221855Z AUTO 26004KT 10SM CLR 25/14 A3009 RMK AO2 T02540138 TSNO
KRRL 221835Z AUTO 00000KT 10SM CLR 25/14 A3009 RMK AO2 T02500142 TSNO
KRRL 221815Z AUTO 27003KT 10SM CLR 25/14 A3010 RMK AO2 T02450143 TSNO
KRRL 221755Z AUTO 00000KT 10SM CLR 25/15 A3011 RMK AO2 P0003 60003 T02460150 10246 20064 TSNO
KRRL 221655Z AUTO 24004KT 10SM CLR 23/15 A3013 RMK AO2 T02260151 TSNO
KRRL 221635Z AUTO 22004KT 10SM CLR 22/15 A3014 RMK AO2 T02180149 TSNO
KRRL 221615Z AUTO 25004KT 10SM CLR 21/15 A3014 RMK AO2 T02110149 TSNO
KRRL 221555Z AUTO 00000KT 10SM CLR 20/14 A3015 RMK AO2 T01970143 TSNO
KRRL 221535Z AUTO 26003KT 10SM CLR 19/14 A3015 RMK AO2 T01920141 TSNO
KRRL 221515Z AUTO 00000KT 10SM CLR 18/13 A3015 RMK AO2 T01800133 TSNO
KRRL 221455Z AUTO 29003KT 10SM CLR 17/13 A3016 RMK AO2 T01690127 TSNO
KRRL 221435Z AUTO 00000KT 10SM CLR 15/12 A3016 RMK AO2 T01520115 TSNO
KRRL 221415Z AUTO 00000KT 10SM CLR 14/11 A3016 RMK AO2 T01400108 TSNO
KRRL 221355Z AUTO 00000KT 10SM CLR 13/10 A3015 RMK AO2 T01260104 TSNO
KRRL 221335Z AUTO 00000KT 10SM CLR 11/10 A3016 RMK AO2 T01070098 TSNO
KRRL 221315Z AUTO 00000KT 10SM CLR 09/09 A3016 RMK AO2 T00930087 TSNO
KRRL 221255Z AUTO 00000KT 10SM CLR 08/07 A3017 RMK AO2 T00760072 TSNO
KRRL 221235Z AUTO 00000KT 10SM CLR 07/07 A3016 RMK AO2 T00700070 TSNO
KRRL 221215Z AUTO 00000KT 10SM CLR 07/07 A3015 RMK AO2 T00690068 TSNO
KRRL 221155Z AUTO 00000KT 10SM CLR 07/07 A3015 RMK AO2 T00690066 10145 20069 TSNO
KRRL 221135Z AUTO 00000KT 10SM CLR 08/07 A3014 RMK AO2 T00750074 TSNO
KRRL 221115Z AUTO 05003KT 10SM CLR 07/07 A3015 RMK AO2 T00730072 TSNO
KRRL 221055Z AUTO 00000KT 10SM CLR 07/07 A3015 RMK AO2 T00720069 TSNO
KRRL 221035Z AUTO 00000KT 10SM CLR 08/07 A3015 RMK AO2 T00750072 TSNO
KRRL 221015Z AUTO 00000KT 10SM CLR 08/07 A3015 RMK AO2 T00750070 TSNO
KRRL 220955Z AUTO 00000KT 10SM CLR 08/08 A3015 RMK AO2 T00830079 TSNO
KRRL 220935Z AUTO 00000KT 10SM CLR 08/08 A3015 RMK AO2 T00820077 TSNO
KRRL 220915Z AUTO 00000KT 10SM CLR 09/08 A3015 RMK AO2 T00900081 TSNO
KRRL 220855Z AUTO 00000KT 10SM CLR 09/08 A3015 RMK AO2 T00870081 TSNO
KRRL 220835Z AUTO 00000KT 10SM CLR 09/08 A3015 RMK AO2 T00880078 TSNO
KRRL 220815Z AUTO 00000KT 10SM CLR 12/09 A3015 RMK AO2 T01190086 TSNO
KRRL 220755Z AUTO 00000KT 10SM CLR 13/09 A3015 RMK AO2 T01260090 TSNO
KRRL 220735Z AUTO 23003KT 10SM CLR 13/09 A3015 RMK AO2 T01300090 TSNO
KRRL 220715Z AUTO 00000KT 10SM CLR 11/09 A3015 RMK AO2 T01100087 TSNO
KRRL 220655Z AUTO 00000KT 10SM CLR 11/09 A3015 RMK AO2 T01130086 TSNO
KRRL 220635Z AUTO 00000KT 10SM CLR 13/09 A3015 RMK AO2 T01280089 TSNO
KRRL 220615Z AUTO 00000KT 10SM CLR 14/09 A3015 RMK AO2 T01430093 TSNO
KRRL 220555Z AUTO 21003KT 10SM CLR 15/09 A3016 RMK AO2 T01460094 10185 20146 402250088 TSNO
KRRL 220535Z AUTO 00000KT 10SM CLR 15/09 A3016 RMK AO2 T01470093 TSNO
KRRL 220515Z AUTO 21003KT 10SM CLR 15/09 A3017 RMK AO2 T01500094 TSNO
KRRL 220455Z AUTO 21005KT 10SM CLR 15/10 A3017 RMK AO2 T01530095 TSNO
KRRL 220435Z AUTO 20004KT 10SM CLR 16/10 A3017 RMK AO2 T01590095 TSNO
KRRL 220415Z AUTO 20004KT 10SM CLR 16/09 A3017 RMK AO2 T01600094 TSNO
KRRL 220355Z AUTO 20005KT 10SM CLR 16/10 A3017 RMK AO2 T01610095 TSNO
KRRL 220335Z AUTO 19005KT 10SM CLR 16/10 A3017 RMK AO2 T01620096 TSNO
KRRL 220315Z AUTO 19004KT 10SM CLR 16/10 A3017 RMK AO2 T01610098 TSNO
KRRL 220255Z AUTO 20005KT 10SM CLR 16/10 A3017 RMK AO2 T01630101 TSNO
KRRL 220235Z AUTO 19006KT 10SM CLR 17/10 A3017 RMK AO2 T01650103 TSNO
KRRL 220215Z AUTO 20007KT 10SM CLR 17/11 A3017 RMK AO2 T01670106 TSNO
KRRL 220155Z AUTO 20006KT 10SM CLR 17/11 A3018 RMK AO2 T01720108 TSNO
KRRL 220135Z AUTO 21006KT 10SM SCT110 17/11 A3017 RMK AO2 T01740110 TSNO
KRRL 220115Z AUTO 22006KT 10SM BKN110 18/11 A3017 RMK AO2 T01760113 TSNO
KRRL 220055Z AUTO 20006KT 10SM OVC110 18/12 A3015 RMK AO2 T01800115 TSNO
KRRL 220035Z AUTO 20006KT 10SM OVC110 18/12 A3015 RMK AO2 T01810116 TSNO
KRRL 220015Z AUTO 19008G15KT 10SM BKN120 19/12 A3015 RMK AO2 T01850115 TSNO
KRRL 212355Z AUTO 19007KT 170V230 10SM SCT120 18/11 A3015 RMK AO2 T01840113 10225 20183 TSNO
KRRL 212335Z AUTO 18005KT 10SM -RA SCT090 SCT120 19/11 A3015 RMK AO2 T01860114 TSNO
KRRL 212315Z AUTO 19006KT 10SM SCT120 19/11 A3016 RMK AO2 T01890111 TSNO
KRRL 212255Z AUTO 19006KT 10SM BKN120 19/11 A3017 RMK AO2 T01920114 TSNO
KRRL 212235Z AUTO 19006KT 10SM BKN120 20/11 A3018 RMK AO2 T01960114 TSNO
KRRL 212215Z AUTO 22008KT 190V250 10SM BKN110 20/12 A3018 RMK AO2 T02000115 TSNO
KRRL 212155Z AUTO 19009G15KT 10SM SCT110 21/11 A3015 RMK AO2 T02050114 TSNO
KRRL 212135Z AUTO 19010G14KT 10SM BKN110 21/11 A3014 RMK AO2 T02060113 TSNO
KRRL 212115Z AUTO 18009G18KT 150V210 10SM BKN100 21/11 A3015 RMK AO2 T02100113 TSNO
KRRL 212055Z AUTO 20007G14KT 10SM SCT110 22/11 A3016 RMK AO2 T02150114 TSNO
KRRL 212035Z AUTO 20007KT 10SM BKN100 21/11 A3017 RMK AO2 T02140111 TSNO
KRRL 212015Z AUTO 21008G15KT 10SM OVC100 22/11 A3017 RMK AO2 T02150110 TSNO
KRRL 211955Z AUTO 18007KT 10SM BKN110 22/11 A3018 RMK AO2 T02170113 TSNO
KRRL 211935Z AUTO 22011G17KT 10SM BKN110 21/11 A3019 RMK AO2 T02130108 TSNO
KRRL 211915Z AUTO 21010G17KT 10SM SCT110 21/10 A3020 RMK AO2 T02110103 TSNO
KRRL 211855Z AUTO 19009G15KT 160V220 10SM CLR 21/10 A3020 RMK AO2 T02090103 TSNO
KRRL 211835Z AUTO 19010KT 10SM CLR 21/10 A3022 RMK AO2 T02090100 TSNO
KRRL 211815Z AUTO 22009G17KT 10SM CLR 21/10 A3023 RMK AO2 T02060097 TSNO
KRRL 211755Z AUTO 20011G14KT 10SM CLR 20/10 A3023 RMK AO2 T02020095 10202 20101 TSNO
KRRL 211735Z AUTO 20008G15KT 10SM CLR 20/09 A3023 RMK AO2 T01970091 TSNO
KRRL 211715Z AUTO 21010G16KT 10SM CLR 19/09 A3024 RMK AO2 T01920085 TSNO
KRRL 211655Z AUTO 20008KT 10SM CLR 19/08 A3025 RMK AO2 T01850080 TSNO
KRRL 211635Z AUTO 22006KT 10SM CLR 18/08 A3025 RMK AO2 T01770076 TSNO
KRRL 211615Z AUTO 21006G09KT 10SM CLR 17/07 A3026 RMK AO2 T01720072 TSNO
KRRL 211555Z AUTO 22009KT 10SM CLR 16/07 A3027 RMK AO2 T01610067 TSNO
KRRL 211535Z AUTO 22008KT 10SM CLR 16/07 A3027 RMK AO2 T01640069 TSNO
KRRL 211515Z AUTO 20005KT 10SM CLR 16/07 A3028 RMK AO2 T01550068 TSNO
KRRL 211455Z AUTO 20005KT 10SM CLR 15/06 A3028 RMK AO2 T01450061 TSNO
KRRL 211435Z AUTO 19004KT 10SM CLR 13/06 A3028 RMK AO2 T01300057 TSNO
KRRL 211415Z AUTO 18005KT 10SM CLR 13/06 A3027 RMK AO2 T01320055 TSNO
KRRL 211355Z AUTO 20005KT 10SM CLR 12/05 A3028 RMK AO2 T01220052 TSNO
KRRL 211335Z AUTO 19005KT 10SM CLR 12/05 A3027 RMK AO2 T01210050 TSNO
KRRL 211315Z AUTO 19007KT 10SM CLR 12/05 A3028 RMK AO2 T01200048 TSNO
KRRL 211255Z AUTO 19004KT 10SM CLR 12/05 A3028 RMK AO2 T01150050 TSNO
KRRL 211235Z AUTO 18005KT 10SM CLR 11/05 A3028 RMK AO2 T01130047 TSNO
KRRL 211215Z AUTO 19005KT 10SM CLR 11/05 A3029 RMK AO2 T01100047 TSNO
KRRL 211155Z AUTO 17003KT 10SM CLR 10/05 A3028 RMK AO2 T01010050 10115 20088 TSNO
KRRL 211135Z AUTO 17003KT 10SM CLR 10/05 A3028 RMK AO2 T00960052 TSNO
KRRL 211115Z AUTO 17004KT 10SM CLR 09/05 A3028 RMK AO2 T00930052 TSNO
KRRL 211055Z AUTO 16004KT 10SM CLR 09/05 A3029 RMK AO2 T00910051 TSNO
KRRL 211035Z AUTO 17003KT 10SM CLR 10/05 A3029 RMK AO2 T01000051 TSNO
KRRL 211015Z AUTO 00000KT 10SM CLR 10/05 A3029 RMK AO2 T01020052 TSNO
KRRL 210955Z AUTO 16004KT 10SM CLR 10/05 A3028 RMK AO2 T01000052 TSNO
KRRL 210935Z AUTO 18003KT 10SM CLR 11/05 A3029 RMK AO2 T01090053 TSNO
KRRL 210915Z AUTO 18003KT 10SM CLR 11/05 A3028 RMK AO2 T01110054 TSNO
KRRL 210855Z AUTO 20003KT 10SM CLR 11/06 A3029 RMK AO2 T01130056 TSNO